Terminal Aerodrome Forecast
Issued by NWS Dodge City, KS

Home | Current Version | Previous Version | Text Only | Print | Product List | Glossary On
Versions: 1 2 3 4 5 6 7 8 9 10 11 12 13 14 15 16 17 18 19 20 21
000
FTUS43 KDDC 222044 AAB
TAFDDC
TAF AMD
KDDC 222044Z 2221/2318 17011KT P6SM OVC006
     FM230000 16009KT P6SM BKN015
     FM230400 15008KT P6SM BKN008
     FM230700 20007KT 1SM BR BKN003
     FM231500 07006KT P6SM BKN050=

USA.gov is the U.S. government's official web portal to all federal, state and local government web resources and services.